Time;durP1;ratioP1;P1;durP2;ratioP2;P2;SDS_P1;SDS_P2;PMS_P1;PMS_P2;Temp;Humidity;BMP_temperature;BMP_pressure;BME280_temperature;BME280_humidity;BME280_pressure;Samples;Min_cycle;Max_cycle;Signal;HPM_P1;HPM_P2
2021/10/28 00:13:53;;;;;;;28.03;11.40;;;;;;;6.74;69.05;101289.53;30660152;29;20052;-74
2021/10/28 00:28:59;;;;;;;22.67;11.70;;;;;;;6.64;70.85;101283.94;30662760;29;20048;-73
2021/10/28 00:44:03;;;;;;;23.23;11.87;;;;;;;6.53;71.47;101294.59;30662478;29;20064;-73
2021/10/28 00:59:05;;;;;;;25.13;11.13;;;;;;;6.43;72.37;101285.19;30647703;29;20042;-72
2021/10/28 01:14:07;;;;;;;22.17;11.00;;;;;;;6.52;73.31;101276.84;30650243;28;20055;-73
2021/10/28 01:29:09;;;;;;;19.77;10.60;;;;;;;6.60;73.74;101256.16;30647360;29;20507;-74
2021/10/28 01:44:11;;;;;;;17.43;10.57;;;;;;;6.64;75.05;101267.75;30663600;29;20423;-72
2021/10/28 01:59:13;;;;;;;22.37;10.57;;;;;;;6.60;75.72;101275.03;30641263;29;20058;-74
2021/10/28 02:14:15;;;;;;;19.57;10.00;;;;;;;6.46;76.60;101283.69;30648334;28;20428;-75
2021/10/28 02:29:17;;;;;;;26.13;10.63;;;;;;;6.32;77.03;101305.03;30651054;29;20059;-73
2021/10/28 02:44:19;;;;;;;23.10;10.53;;;;;;;6.10;78.19;101309.28;30629423;29;20448;-74
2021/10/28 02:59:20;;;;;;;22.13;10.43;;;;;;;5.92;78.31;101321.63;30623778;29;20048;-74
2021/10/28 03:29:40;;;;;;;21.77;10.43;;;;;;;5.78;79.64;101325.59;30620557;29;20043;-74
2021/10/28 04:30:26;;;;;;;21.57;11.73;;;;;;;5.38;81.96;101349.41;30629615;29;20130;-74
2021/10/28 04:45:28;;;;;;;31.03;12.70;;;;;;;5.21;81.53;101349.78;30638574;29;20058;-74
2021/10/28 05:00:30;;;;;;;21.73;12.90;;;;;;;5.34;82.05;101375.47;30633001;29;20055;-76
2021/10/28 05:15:32;;;;;;;36.97;14.17;;;;;;;6.00;79.44;101382.63;30637500;29;20094;-74
2021/10/28 05:30:35;;;;;;;27.37;13.80;;;;;;;6.68;76.64;101371.91;30647926;29;20063;-74
2021/10/28 05:45:37;;;;;;;28.63;13.97;;;;;;;8.32;70.65;101374.06;30639107;29;20520;-75
2021/10/28 06:00:39;;;;;;;34.27;16.90;;;;;;;9.35;66.63;101374.91;30674072;28;20415;-74
2021/10/28 06:15:41;;;;;;;42.97;19.90;;;;;;;10.63;62.45;101402.47;30649927;29;20066;-73
2021/10/28 06:30:43;;;;;;;37.17;19.67;;;;;;;11.66;57.45;101396.88;30654134;29;20412;-74
2021/10/28 06:45:44;;;;;;;48.23;23.50;;;;;;;12.98;54.27;101381.31;30650456;29;20047;-73
2021/10/28 08:17:59;;;;;;;30.20;16.88;;;;;;;17.53;42.33;101357.19;30661425;29;20047;-75
2021/10/28 08:33:00;;;;;;;31.10;17.30;;;;;;;18.24;39.78;101332.34;30675931;29;20051;-73
2021/10/28 08:48:21;;;;;;;31.33;17.38;;;;;;;18.91;38.71;101290.84;30649116;29;20445;-73
2021/10/28 09:34:28;;;;;;;23.67;12.77;;;;;;;17.89;41.53;101291.06;30673407;29;20059;-75
2021/10/28 09:49:56;;;;;;;24.77;13.35;;;;;;;18.18;41.09;101285.44;30645851;29;20059;-74
2021/10/28 10:05:04;;;;;;;28.95;15.65;;;;;;;18.89;39.69;101265.78;30677466;28;20059;-76
2021/10/28 10:20:12;;;;;;;31.42;17.65;;;;;;;18.37;40.19;101258.91;30633626;28;20056;-75
2021/10/28 13:56:18;;;;;;;21.50;9.53;;;;;;;14.37;48.67;101150.97;30681675;29;20055;-74
2021/10/28 16:28:55;;;;;;;46.47;24.67;;;;;;;12.30;58.88;101174.09;30659756;29;20054;-75
2021/10/28 16:43:57;;;;;;;55.17;26.10;;;;;;;12.16;58.64;101180.47;30669663;29;20047;-73
2021/10/28 16:58:59;;;;;;;59.83;30.27;;;;;;;11.94;60.49;101179.88;30673094;29;20048;-75
2021/10/28 17:14:02;;;;;;;66.83;28.93;;;;;;;12.11;59.54;101178.19;30643469;29;20055;-73
2021/10/28 17:29:04;;;;;;;61.27;29.60;;;;;;;12.00;59.34;101169.34;30649620;29;20048;-74
2021/10/28 17:44:07;;;;;;;60.13;28.03;;;;;;;11.92;61.06;101181.47;30647873;29;20142;-75
2021/10/28 17:59:09;;;;;;;49.00;25.07;;;;;;;11.89;60.20;101177.59;30661208;29;20051;-76
2021/10/28 18:14:16;;;;;;;52.80;25.03;;;;;;;11.80;60.89;101174.56;30675703;29;20058;-73
2021/10/28 18:29:18;;;;;;;43.43;21.97;;;;;;;11.84;61.13;101171.78;30651576;29;20143;-74
2021/10/28 18:44:22;;;;;;;48.23;23.30;;;;;;;11.80;62.44;101173.78;30611117;29;20056;-76
2021/10/28 18:59:29;;;;;;;40.37;20.23;;;;;;;11.88;61.84;101197.81;30610542;29;20055;-77
2021/10/28 19:14:34;;;;;;;36.37;17.13;;;;;;;12.06;62.46;101202.31;30617543;29;20054;-79
2021/10/28 19:29:42;;;;;;;31.63;14.70;;;;;;;12.35;60.77;101225.41;30629346;29;20142;-77
2021/10/28 19:45:11;;;;;;;32.03;15.47;;;;;;;12.43;60.64;101237.78;30619828;29;20139;-76
2021/10/28 20:30:53;;;;;;;35.57;17.83;;;;;;;11.83;62.35;101260.03;30674935;29;20051;-74
2021/10/28 20:45:55;;;;;;;33.57;17.93;;;;;;;11.50;63.68;101272.25;30666893;29;20428;-75
2021/10/28 21:00:57;;;;;;;37.37;19.90;;;;;;;11.19;64.84;101271.97;30649925;29;20130;-74
2021/10/28 21:16:01;;;;;;;41.67;19.60;;;;;;;11.05;65.65;101285.63;30663703;28;20063;-74
2021/10/28 21:31:03;;;;;;;51.00;24.47;;;;;;;11.05;66.96;101301.91;30642231;29;20111;-78
2021/10/28 21:46:08;;;;;;;49.77;25.73;;;;;;;11.06;66.95;101311.63;30648493;29;20051;-74
2021/10/28 22:01:35;;;;;;;53.73;27.47;;;;;;;11.08;67.82;101313.97;30635469;29;20059;-76
2021/10/28 22:31:57;;;;;;;42.63;20.90;;;;;;;11.04;68.82;101308.53;30588352;29;19923;-74
2021/10/28 22:46:59;;;;;;;41.70;20.53;;;;;;;10.96;69.18;101317.84;30613925;29;20077;-73
2021/10/28 23:02:21;;;;;;;35.73;19.00;;;;;;;10.99;70.68;101321.72;30622961;29;20048;-76
2021/10/28 23:32:44;;;;;;;40.27;19.87;;;;;;;10.88;72.73;101308.16;30648296;29;20502;-74
2021/10/28 23:47:46;;;;;;;38.80;18.83;;;;;;;10.84;74.03;101315.56;30637558;28;20047;-74
